sensor_id;sensor_type;location;lat;lon;timestamp;pressure;altitude;pressure_sealevel;temperature;humidity
51829;BME280;37881;48.024;8.774;2023-09-19T00:00:21;93754.00;;;13.94;100.00
51829;BME280;37881;48.024;8.774;2023-09-19T00:02:57;93751.47;;;13.99;100.00
51829;BME280;37881;48.024;8.774;2023-09-19T00:05:27;93748.94;;;14.05;100.00
51829;BME280;37881;48.024;8.774;2023-09-19T00:07:56;93747.38;;;14.04;100.00
51829;BME280;37881;48.024;8.774;2023-09-19T00:10:26;93754.22;;;14.12;100.00
51829;BME280;37881;48.024;8.774;2023-09-19T00:12:54;93753.00;;;14.13;100.00
51829;BME280;37881;48.024;8.774;2023-09-19T00:15:27;93752.47;;;14.18;100.00
51829;BME280;37881;48.024;8.774;2023-09-19T00:17:57;93756.31;;;14.21;100.00
51829;BME280;37881;48.024;8.774;2023-09-19T00:20:23;93757.53;;;14.07;100.00
51829;BME280;37881;48.024;8.774;2023-09-19T00:22:50;93761.81;;;14.08;100.00
51829;BME280;37881;48.024;8.774;2023-09-19T00:25:20;93753.34;;;14.15;100.00
51829;BME280;37881;48.024;8.774;2023-09-19T00:27:47;93763.28;;;13.87;100.00
51829;BME280;37881;48.024;8.774;2023-09-19T00:30:18;93758.75;;;13.81;100.00
51829;BME280;37881;48.024;8.774;2023-09-19T00:32:49;93767.34;;;13.70;100.00
51829;BME280;37881;48.024;8.774;2023-09-19T00:35:18;93758.53;;;13.75;100.00
51829;BME280;37881;48.024;8.774;2023-09-19T00:37:45;93757.63;;;13.65;100.00
51829;BME280;37881;48.024;8.774;2023-09-19T00:40:12;93757.72;;;13.62;100.00
51829;BME280;37881;48.024;8.774;2023-09-19T00:42:39;93747.47;;;13.62;100.00
51829;BME280;37881;48.024;8.774;2023-09-19T00:45:08;93747.69;;;13.68;100.00
51829;BME280;37881;48.024;8.774;2023-09-19T00:47:48;93756.44;;;13.66;100.00
51829;BME280;37881;48.024;8.774;2023-09-19T00:50:18;93756.06;;;13.64;100.00
51829;BME280;37881;48.024;8.774;2023-09-19T00:52:50;93759.50;;;13.68;100.00
51829;BME280;37881;48.024;8.774;2023-09-19T00:55:19;93752.91;;;13.78;100.00
51829;BME280;37881;48.024;8.774;2023-09-19T00:57:47;93760.28;;;13.82;100.00
51829;BME280;37881;48.024;8.774;2023-09-19T01:00:16;93764.03;;;13.88;100.00
51829;BME280;37881;48.024;8.774;2023-09-19T01:02:47;93760.63;;;13.96;100.00
51829;BME280;37881;48.024;8.774;2023-09-19T01:05:15;93773.53;;;13.99;100.00
51829;BME280;37881;48.024;8.774;2023-09-19T01:07:42;93781.72;;;14.03;100.00
51829;BME280;37881;48.024;8.774;2023-09-19T01:10:17;93784.03;;;14.05;100.00
51829;BME280;37881;48.024;8.774;2023-09-19T01:29:20;93775.31;;;13.93;100.00
51829;BME280;37881;48.024;8.774;2023-09-19T01:31:59;93786.00;;;13.91;100.00
51829;BME280;37881;48.024;8.774;2023-09-19T01:34:48;93789.97;;;13.90;100.00
51829;BME280;37881;48.024;8.774;2023-09-19T01:37:17;93780.59;;;13.75;100.00
51829;BME280;37881;48.024;8.774;2023-09-19T01:39:55;93784.53;;;13.74;100.00
51829;BME280;37881;48.024;8.774;2023-09-19T01:47:49;93783.88;;;13.57;100.00
51829;BME280;37881;48.024;8.774;2023-09-19T01:50:36;93780.69;;;13.58;100.00
51829;BME280;37881;48.024;8.774;2023-09-19T01:53:23;93790.69;;;13.52;100.00
51829;BME280;37881;48.024;8.774;2023-09-19T01:55:52;93791.13;;;13.51;100.00
51829;BME280;37881;48.024;8.774;2023-09-19T01:58:48;93792.66;;;13.52;100.00
51829;BME280;37881;48.024;8.774;2023-09-19T02:01:19;93790.38;;;13.50;100.00
51829;BME280;37881;48.024;8.774;2023-09-19T02:03:48;93797.16;;;13.46;100.00
51829;BME280;37881;48.024;8.774;2023-09-19T02:06:16;93801.94;;;13.29;100.00
51829;BME280;37881;48.024;8.774;2023-09-19T02:08:47;93800.91;;;13.39;100.00
51829;BME280;37881;48.024;8.774;2023-09-19T02:11:14;93799.72;;;13.40;100.00
51829;BME280;37881;48.024;8.774;2023-09-19T02:13:41;93783.97;;;13.53;100.00
51829;BME280;37881;48.024;8.774;2023-09-19T02:16:09;93793.56;;;13.62;100.00
51829;BME280;37881;48.024;8.774;2023-09-19T02:18:38;93792.47;;;13.72;100.00
51829;BME280;37881;48.024;8.774;2023-09-19T02:21:06;93796.13;;;13.69;100.00
51829;BME280;37881;48.024;8.774;2023-09-19T02:23:39;93807.06;;;13.72;100.00
51829;BME280;37881;48.024;8.774;2023-09-19T02:26:06;93804.09;;;13.79;100.00
51829;BME280;37881;48.024;8.774;2023-09-19T02:28:34;93799.78;;;13.91;100.00
51829;BME280;37881;48.024;8.774;2023-09-19T02:31:02;93811.16;;;13.93;100.00
51829;BME280;37881;48.024;8.774;2023-09-19T02:33:31;93808.41;;;13.93;100.00
51829;BME280;37881;48.024;8.774;2023-09-19T02:35:59;93810.63;;;13.98;100.00
51829;BME280;37881;48.024;8.774;2023-09-19T02:38:27;93813.34;;;13.86;100.00
51829;BME280;37881;48.024;8.774;2023-09-19T02:40:56;93815.34;;;13.85;100.00
51829;BME280;37881;48.024;8.774;2023-09-19T02:43:23;93814.25;;;13.95;100.00
51829;BME280;37881;48.024;8.774;2023-09-19T02:45:50;93805.75;;;13.77;100.00
51829;BME280;37881;48.024;8.774;2023-09-19T02:48:17;93803.41;;;13.88;100.00
51829;BME280;37881;48.024;8.774;2023-09-19T02:50:45;93803.22;;;13.95;100.00
51829;BME280;37881;48.024;8.774;2023-09-19T02:53:12;93800.38;;;13.99;100.00
51829;BME280;37881;48.024;8.774;2023-09-19T02:55:39;93798.25;;;13.90;100.00
51829;BME280;37881;48.024;8.774;2023-09-19T02:58:09;93804.97;;;13.89;100.00
51829;BME280;37881;48.024;8.774;2023-09-19T03:00:41;93811.69;;;13.88;100.00
51829;BME280;37881;48.024;8.774;2023-09-19T03:03:09;93809.75;;;13.89;100.00
51829;BME280;37881;48.024;8.774;2023-09-19T03:05:36;93811.50;;;13.95;100.00
51829;BME280;37881;48.024;8.774;2023-09-19T03:08:05;93812.25;;;13.96;100.00
51829;BME280;37881;48.024;8.774;2023-09-19T03:10:32;93805.97;;;13.95;100.00
51829;BME280;37881;48.024;8.774;2023-09-19T03:12:59;93811.72;;;14.01;100.00
51829;BME280;37881;48.024;8.774;2023-09-19T03:15:29;93816.03;;;14.15;100.00
51829;BME280;37881;48.024;8.774;2023-09-19T03:17:56;93820.56;;;14.09;100.00
51829;BME280;37881;48.024;8.774;2023-09-19T03:20:23;93821.78;;;14.08;100.00
51829;BME280;37881;48.024;8.774;2023-09-19T03:22:50;93823.75;;;14.07;100.00
51829;BME280;37881;48.024;8.774;2023-09-19T03:25:17;93815.69;;;14.00;100.00
51829;BME280;37881;48.024;8.774;2023-09-19T03:27:44;93819.78;;;13.95;100.00
51829;BME280;37881;48.024;8.774;2023-09-19T03:30:11;93823.88;;;13.91;100.00
51829;BME280;37881;48.024;8.774;2023-09-19T03:32:46;93819.78;;;13.83;100.00
51829;BME280;37881;48.024;8.774;2023-09-19T03:35:17;93819.78;;;13.83;100.00
51829;BME280;37881;48.024;8.774;2023-09-19T03:37:44;93816.78;;;13.77;100.00
51829;BME280;37881;48.024;8.774;2023-09-19T03:40:11;93823.81;;;13.78;100.00
51829;BME280;37881;48.024;8.774;2023-09-19T03:42:39;93817.88;;;13.79;100.00
51829;BME280;37881;48.024;8.774;2023-09-19T03:45:10;93820.44;;;13.87;100.00
51829;BME280;37881;48.024;8.774;2023-09-19T03:47:40;93822.72;;;13.88;100.00
51829;BME280;37881;48.024;8.774;2023-09-19T03:50:08;93829.28;;;13.94;100.00
51829;BME280;37881;48.024;8.774;2023-09-19T03:52:37;93817.69;;;13.99;100.00
51829;BME280;37881;48.024;8.774;2023-09-19T03:55:04;93819.78;;;13.95;100.00
51829;BME280;37881;48.024;8.774;2023-09-19T03:57:31;93824.84;;;13.97;100.00
51829;BME280;37881;48.024;8.774;2023-09-19T03:59:58;93824.44;;;13.98;100.00
51829;BME280;37881;48.024;8.774;2023-09-19T04:02:25;93829.63;;;13.96;100.00
51829;BME280;37881;48.024;8.774;2023-09-19T04:04:52;93832.56;;;14.02;100.00
51829;BME280;37881;48.024;8.774;2023-09-19T04:07:19;93839.56;;;14.07;100.00
51829;BME280;37881;48.024;8.774;2023-09-19T04:09:49;93841.19;;;14.04;100.00
51829;BME280;37881;48.024;8.774;2023-09-19T04:12:16;93843.75;;;14.11;100.00
51829;BME280;37881;48.024;8.774;2023-09-19T04:14:45;93833.66;;;13.92;100.00
51829;BME280;37881;48.024;8.774;2023-09-19T04:17:12;93838.69;;;13.68;100.00
51829;BME280;37881;48.024;8.774;2023-09-19T04:19:39;93844.53;;;13.57;100.00
51829;BME280;37881;48.024;8.774;2023-09-19T04:22:07;93846.34;;;13.47;100.00
51829;BME280;37881;48.024;8.774;2023-09-19T04:24:35;93841.56;;;13.35;100.00
51829;BME280;37881;48.024;8.774;2023-09-19T04:27:02;93849.94;;;13.31;100.00
51829;BME280;37881;48.024;8.774;2023-09-19T04:29:29;93844.09;;;13.29;100.00
51829;BME280;37881;48.024;8.774;2023-09-19T04:31:56;93851.38;;;13.36;100.00
51829;BME280;37881;48.024;8.774;2023-09-19T04:34:26;93844.16;;;13.42;100.00
51829;BME280;37881;48.024;8.774;2023-09-19T04:36:54;93850.00;;;13.44;100.00
51829;BME280;37881;48.024;8.774;2023-09-19T04:39:23;93851.22;;;13.56;100.00
51829;BME280;37881;48.024;8.774;2023-09-19T04:41:52;93850.63;;;13.65;100.00
51829;BME280;37881;48.024;8.774;2023-09-19T04:44:19;93854.03;;;13.69;100.00
51829;BME280;37881;48.024;8.774;2023-09-19T04:46:47;93844.22;;;13.68;100.00
51829;BME280;37881;48.024;8.774;2023-09-19T04:49:13;93844.44;;;13.73;100.00
51829;BME280;37881;48.024;8.774;2023-09-19T04:51:40;93857.47;;;13.73;100.00
51829;BME280;37881;48.024;8.774;2023-09-19T04:54:07;93851.97;;;13.73;100.00
51829;BME280;37881;48.024;8.774;2023-09-19T04:56:34;93862.00;;;13.79;100.00
51829;BME280;37881;48.024;8.774;2023-09-19T04:59:00;93858.16;;;13.77;100.00
51829;BME280;37881;48.024;8.774;2023-09-19T05:01:27;93864.97;;;13.72;100.00
51829;BME280;37881;48.024;8.774;2023-09-19T05:03:54;93869.50;;;13.79;100.00
51829;BME280;37881;48.024;8.774;2023-09-19T05:06:21;93874.59;;;13.81;100.00
51829;BME280;37881;48.024;8.774;2023-09-19T05:08:49;93873.28;;;13.85;100.00
51829;BME280;37881;48.024;8.774;2023-09-19T05:11:18;93871.28;;;13.86;100.00
51829;BME280;37881;48.024;8.774;2023-09-19T05:13:45;93876.03;;;13.85;100.00
51829;BME280;37881;48.024;8.774;2023-09-19T05:16:12;93879.78;;;13.78;100.00
51829;BME280;37881;48.024;8.774;2023-09-19T05:18:39;93878.97;;;13.78;100.00
51829;BME280;37881;48.024;8.774;2023-09-19T05:21:06;93883.66;;;13.81;100.00
51829;BME280;37881;48.024;8.774;2023-09-19T05:23:32;93873.94;;;13.89;100.00
51829;BME280;37881;48.024;8.774;2023-09-19T05:25:59;93873.94;;;13.89;100.00
51829;BME280;37881;48.024;8.774;2023-09-19T05:28:26;93880.84;;;13.68;100.00
51829;BME280;37881;48.024;8.774;2023-09-19T05:30:53;93869.81;;;13.39;100.00
51829;BME280;37881;48.024;8.774;2023-09-19T05:33:20;93866.28;;;13.38;100.00
51829;BME280;37881;48.024;8.774;2023-09-19T05:35:50;93862.56;;;13.45;100.00
51829;BME280;37881;48.024;8.774;2023-09-19T05:38:17;93862.38;;;13.52;100.00
51829;BME280;37881;48.024;8.774;2023-09-19T05:40:46;93872.69;;;13.65;100.00
51829;BME280;37881;48.024;8.774;2023-09-19T05:43:13;93880.53;;;13.79;100.00
51829;BME280;37881;48.024;8.774;2023-09-19T05:45:41;93875.19;;;14.01;100.00
51829;BME280;37881;48.024;8.774;2023-09-19T05:50:35;93882.63;;;14.17;100.00
51829;BME280;37881;48.024;8.774;2023-09-19T05:53:03;93883.03;;;14.15;100.00
51829;BME280;37881;48.024;8.774;2023-09-19T05:55:31;93886.81;;;14.22;100.00
51829;BME280;37881;48.024;8.774;2023-09-19T05:57:58;93892.09;;;14.16;100.00
51829;BME280;37881;48.024;8.774;2023-09-19T06:00:26;93897.84;;;14.22;100.00
51829;BME280;37881;48.024;8.774;2023-09-19T06:02:55;93896.19;;;14.24;100.00
51829;BME280;37881;48.024;8.774;2023-09-19T06:05:24;93908.06;;;14.08;100.00
51829;BME280;37881;48.024;8.774;2023-09-19T06:07:53;93900.59;;;14.09;100.00
51829;BME280;37881;48.024;8.774;2023-09-19T06:10:20;93897.47;;;13.94;100.00
51829;BME280;37881;48.024;8.774;2023-09-19T06:12:49;93904.72;;;13.88;100.00
51829;BME280;37881;48.024;8.774;2023-09-19T06:15:16;93908.31;;;14.14;100.00
51829;BME280;37881;48.024;8.774;2023-09-19T06:17:49;93904.38;;;14.15;100.00
51829;BME280;37881;48.024;8.774;2023-09-19T06:20:17;93908.78;;;14.25;100.00
51829;BME280;37881;48.024;8.774;2023-09-19T06:22:45;93903.63;;;14.53;100.00
51829;BME280;37881;48.024;8.774;2023-09-19T06:25:13;93909.41;;;14.71;100.00
51829;BME280;37881;48.024;8.774;2023-09-19T06:27:50;93914.69;;;14.53;100.00
51829;BME280;37881;48.024;8.774;2023-09-19T06:30:20;93922.63;;;14.76;100.00
51829;BME280;37881;48.024;8.774;2023-09-19T06:32:47;93926.81;;;15.07;100.00
51829;BME280;37881;48.024;8.774;2023-09-19T06:35:15;93917.72;;;15.19;100.00
51829;BME280;37881;48.024;8.774;2023-09-19T06:37:43;93918.00;;;15.47;100.00
51829;BME280;37881;48.024;8.774;2023-09-19T06:40:14;93910.31;;;15.29;100.00
51829;BME280;37881;48.024;8.774;2023-09-19T06:42:41;93924.16;;;15.16;100.00
51829;BME280;37881;48.024;8.774;2023-09-19T06:45:09;93917.19;;;15.24;100.00
51829;BME280;37881;48.024;8.774;2023-09-19T06:47:38;93925.53;;;15.46;100.00
51829;BME280;37881;48.024;8.774;2023-09-19T06:50:05;93914.22;;;15.88;100.00
51829;BME280;37881;48.024;8.774;2023-09-19T06:52:35;93911.88;;;16.31;100.00
51829;BME280;37881;48.024;8.774;2023-09-19T06:55:02;93924.84;;;16.12;100.00
51829;BME280;37881;48.024;8.774;2023-09-19T06:57:29;93926.72;;;15.93;100.00
51829;BME280;37881;48.024;8.774;2023-09-19T06:59:57;93937.84;;;15.67;100.00
51829;BME280;37881;48.024;8.774;2023-09-19T07:02:24;93939.06;;;15.66;100.00
51829;BME280;37881;48.024;8.774;2023-09-19T07:04:51;93940.50;;;16.06;100.00
51829;BME280;37881;48.024;8.774;2023-09-19T07:07:18;93940.34;;;16.09;100.00
51829;BME280;37881;48.024;8.774;2023-09-19T07:09:44;93940.75;;;15.98;100.00
51829;BME280;37881;48.024;8.774;2023-09-19T07:12:12;93940.59;;;15.80;100.00
51829;BME280;37881;48.024;8.774;2023-09-19T07:14:39;93935.84;;;16.03;100.00
51829;BME280;37881;48.024;8.774;2023-09-19T07:17:06;93942.59;;;16.02;100.00
51829;BME280;37881;48.024;8.774;2023-09-19T07:19:33;93941.13;;;15.88;100.00
51829;BME280;37881;48.024;8.774;2023-09-19T07:22:00;93943.75;;;16.35;100.00
51829;BME280;37881;48.024;8.774;2023-09-19T07:24:29;93944.53;;;16.67;100.00
51829;BME280;37881;48.024;8.774;2023-09-19T07:26:55;93951.31;;;18.67;100.00
51829;BME280;37881;48.024;8.774;2023-09-19T07:29:22;93943.66;;;22.06;100.00
51829;BME280;37881;48.024;8.774;2023-09-19T07:31:49;93937.13;;;24.88;97.27
51829;BME280;37881;48.024;8.774;2023-09-19T07:34:16;93936.63;;;25.06;80.26
51829;BME280;37881;48.024;8.774;2023-09-19T07:36:44;93941.75;;;25.47;78.51
51829;BME280;37881;48.024;8.774;2023-09-19T07:39:11;93943.19;;;26.99;70.62
51829;BME280;37881;48.024;8.774;2023-09-19T07:41:48;93938.75;;;26.74;67.97
51829;BME280;37881;48.024;8.774;2023-09-19T07:44:16;93943.34;;;26.77;67.72
51829;BME280;37881;48.024;8.774;2023-09-19T07:46:43;93944.13;;;27.98;63.82
51829;BME280;37881;48.024;8.774;2023-09-19T07:49:11;93950.25;;;24.31;79.28
51829;BME280;37881;48.024;8.774;2023-09-19T07:51:38;93944.94;;;24.44;79.62
51829;BME280;37881;48.024;8.774;2023-09-19T07:54:05;93952.06;;;23.80;86.54
51829;BME280;37881;48.024;8.774;2023-09-19T07:56:32;93961.44;;;23.71;86.51
51829;BME280;37881;48.024;8.774;2023-09-19T07:58:59;93953.16;;;24.65;84.01
51829;BME280;37881;48.024;8.774;2023-09-19T08:01:26;93951.16;;;24.71;78.19
51829;BME280;37881;48.024;8.774;2023-09-19T08:03:54;93959.56;;;22.93;82.06
51829;BME280;37881;48.024;8.774;2023-09-19T08:06:21;93958.09;;;25.04;76.63
51829;BME280;37881;48.024;8.774;2023-09-19T08:08:51;93961.59;;;23.99;76.32
51829;BME280;37881;48.024;8.774;2023-09-19T08:11:21;93975.22;;;23.05;82.42
51829;BME280;37881;48.024;8.774;2023-09-19T08:13:50;93983.22;;;23.87;77.65
51829;BME280;37881;48.024;8.774;2023-09-19T08:16:17;93981.56;;;21.21;97.88
51829;BME280;37881;48.024;8.774;2023-09-19T08:18:49;93991.94;;;20.07;100.00
51829;BME280;37881;48.024;8.774;2023-09-19T08:21:22;93991.25;;;20.51;100.00
51829;BME280;37881;48.024;8.774;2023-09-19T08:23:50;93998.34;;;20.38;100.00
51829;BME280;37881;48.024;8.774;2023-09-19T08:26:17;94001.81;;;20.47;100.00
51829;BME280;37881;48.024;8.774;2023-09-19T08:28:44;94010.25;;;19.75;100.00
51829;BME280;37881;48.024;8.774;2023-09-19T08:31:10;94007.09;;;19.58;100.00
51829;BME280;37881;48.024;8.774;2023-09-19T08:33:37;94024.78;;;18.94;100.00
51829;BME280;37881;48.024;8.774;2023-09-19T08:36:06;94022.72;;;19.13;100.00
51829;BME280;37881;48.024;8.774;2023-09-19T08:38:34;94015.78;;;19.84;100.00
51829;BME280;37881;48.024;8.774;2023-09-19T08:41:06;94009.56;;;20.82;98.87
51829;BME280;37881;48.024;8.774;2023-09-19T08:43:34;94017.22;;;21.97;92.40
51829;BME280;37881;48.024;8.774;2023-09-19T08:46:12;94003.78;;;26.70;71.28
51829;BME280;37881;48.024;8.774;2023-09-19T08:51:26;94002.00;;;25.69;68.83
51829;BME280;37881;48.024;8.774;2023-09-19T08:54:08;94004.38;;;29.26;57.54
51829;BME280;37881;48.024;8.774;2023-09-19T08:56:41;94007.88;;;29.64;52.23
51829;BME280;37881;48.024;8.774;2023-09-19T08:59:09;94004.44;;;29.01;51.05
51829;BME280;37881;48.024;8.774;2023-09-19T09:01:40;93997.94;;;29.44;49.29
51829;BME280;37881;48.024;8.774;2023-09-19T09:04:09;94000.69;;;30.62;46.17
51829;BME280;37881;48.024;8.774;2023-09-19T09:06:42;93994.16;;;30.27;47.17
51829;BME280;37881;48.024;8.774;2023-09-19T09:09:10;93998.06;;;29.98;45.21
51829;BME280;37881;48.024;8.774;2023-09-19T09:11:38;94004.59;;;31.34;44.97
51829;BME280;37881;48.024;8.774;2023-09-19T09:14:07;94001.66;;;29.53;45.48
51829;BME280;37881;48.024;8.774;2023-09-19T09:16:34;93993.09;;;30.17;46.28
51829;BME280;37881;48.024;8.774;2023-09-19T09:19:01;94004.00;;;26.78;50.97
51829;BME280;37881;48.024;8.774;2023-09-19T09:21:28;94005.16;;;26.46;54.58
51829;BME280;37881;48.024;8.774;2023-09-19T09:23:54;94002.78;;;25.64;54.14
51829;BME280;37881;48.024;8.774;2023-09-19T09:26:40;94002.03;;;25.52;57.09
51829;BME280;37881;48.024;8.774;2023-09-19T09:29:07;94005.28;;;26.01;55.23
51829;BME280;37881;48.024;8.774;2023-09-19T09:31:34;93998.72;;;24.37;60.39
51829;BME280;37881;48.024;8.774;2023-09-19T09:34:01;94004.44;;;24.60;62.48
51829;BME280;37881;48.024;8.774;2023-09-19T09:36:35;94016.53;;;24.28;64.56
51829;BME280;37881;48.024;8.774;2023-09-19T09:39:03;94012.63;;;24.75;63.23
51829;BME280;37881;48.024;8.774;2023-09-19T09:41:43;94020.63;;;25.83;58.67
51829;BME280;37881;48.024;8.774;2023-09-19T09:44:17;94015.59;;;26.57;56.98
51829;BME280;37881;48.024;8.774;2023-09-19T09:46:47;94019.00;;;24.69;60.81
51829;BME280;37881;48.024;8.774;2023-09-19T09:49:23;94018.50;;;24.77;61.86
51829;BME280;37881;48.024;8.774;2023-09-19T09:52:05;94018.16;;;26.61;55.79
51829;BME280;37881;48.024;8.774;2023-09-19T09:54:59;94019.56;;;27.32;52.80
51829;BME280;37881;48.024;8.774;2023-09-19T09:57:33;94022.63;;;28.19;50.45
51829;BME280;37881;48.024;8.774;2023-09-19T10:00:01;94014.75;;;26.74;54.16
51829;BME280;37881;48.024;8.774;2023-09-19T10:02:38;94020.78;;;28.71;48.81
51829;BME280;37881;48.024;8.774;2023-09-19T10:07:49;94012.38;;;24.12;58.84
51829;BME280;37881;48.024;8.774;2023-09-19T10:10:30;94012.72;;;25.99;55.98
51829;BME280;37881;48.024;8.774;2023-09-19T10:13:06;94014.94;;;27.28;50.58
51829;BME280;37881;48.024;8.774;2023-09-19T10:15:35;94008.59;;;28.38;49.53
51829;BME280;37881;48.024;8.774;2023-09-19T10:18:06;94003.16;;;31.06;44.02
51829;BME280;37881;48.024;8.774;2023-09-19T10:20:39;94000.78;;;29.58;44.02
51829;BME280;37881;48.024;8.774;2023-09-19T10:23:10;93995.66;;;30.02;42.89
51829;BME280;37881;48.024;8.774;2023-09-19T10:25:43;93996.13;;;30.19;43.10
51829;BME280;37881;48.024;8.774;2023-09-19T10:28:10;93995.81;;;30.23;43.75
51829;BME280;37881;48.024;8.774;2023-09-19T10:30:46;93991.53;;;29.25;43.75
51829;BME280;37881;48.024;8.774;2023-09-19T10:33:15;93991.50;;;28.05;48.10
51829;BME280;37881;48.024;8.774;2023-09-19T10:35:47;93997.69;;;27.43;48.91
51829;BME280;37881;48.024;8.774;2023-09-19T10:38:18;94008.13;;;25.84;50.96
51829;BME280;37881;48.024;8.774;2023-09-19T10:40:55;93999.72;;;28.72;46.84
51829;BME280;37881;48.024;8.774;2023-09-19T10:43:27;94006.22;;;29.56;44.35
51829;BME280;37881;48.024;8.774;2023-09-19T10:46:07;94007.34;;;27.54;46.31
51829;BME280;37881;48.024;8.774;2023-09-19T10:48:36;94006.78;;;26.19;49.71
51829;BME280;37881;48.024;8.774;2023-09-19T10:51:14;94005.72;;;27.34;49.22
51829;BME280;37881;48.024;8.774;2023-09-19T10:53:57;93990.97;;;29.78;43.50
51829;BME280;37881;48.024;8.774;2023-09-19T10:56:35;93992.88;;;30.42;41.79
51829;BME280;37881;48.024;8.774;2023-09-19T10:59:12;93994.09;;;30.46;42.78
51829;BME280;37881;48.024;8.774;2023-09-19T11:01:53;93985.16;;;31.38;40.17
51829;BME280;37881;48.024;8.774;2023-09-19T11:04:24;93987.69;;;29.41;41.96
51829;BME280;37881;48.024;8.774;2023-09-19T11:14:56;93985.13;;;28.86;42.43
51829;BME280;37881;48.024;8.774;2023-09-19T11:17:36;93983.84;;;27.45;42.77
51829;BME280;37881;48.024;8.774;2023-09-19T11:30:37;93964.97;;;24.09;51.64
51829;BME280;37881;48.024;8.774;2023-09-19T11:33:29;93968.13;;;24.39;53.17
51829;BME280;37881;48.024;8.774;2023-09-19T11:36:14;93971.47;;;24.43;51.34
51829;BME280;37881;48.024;8.774;2023-09-19T11:46:31;93965.25;;;24.22;51.33
51829;BME280;37881;48.024;8.774;2023-09-19T11:49:06;93955.72;;;24.68;48.75
51829;BME280;37881;48.024;8.774;2023-09-19T11:51:40;93962.16;;;24.09;51.16
51829;BME280;37881;48.024;8.774;2023-09-19T11:54:13;93966.72;;;23.63;51.63
51829;BME280;37881;48.024;8.774;2023-09-19T11:56:52;93965.56;;;23.06;52.35
51829;BME280;37881;48.024;8.774;2023-09-19T11:59:25;93962.13;;;23.23;55.51
51829;BME280;37881;48.024;8.774;2023-09-19T12:02:05;93956.38;;;23.06;53.49
51829;BME280;37881;48.024;8.774;2023-09-19T12:04:36;93961.22;;;23.37;55.11
51829;BME280;37881;48.024;8.774;2023-09-19T12:07:10;93963.66;;;22.92;53.38
51829;BME280;37881;48.024;8.774;2023-09-19T12:09:39;93962.25;;;23.08;53.27
51829;BME280;37881;48.024;8.774;2023-09-19T12:12:10;93958.72;;;23.45;53.83
51829;BME280;37881;48.024;8.774;2023-09-19T12:14:39;93948.88;;;22.91;54.87
51829;BME280;37881;48.024;8.774;2023-09-19T12:17:08;93956.41;;;23.43;53.18
51829;BME280;37881;48.024;8.774;2023-09-19T12:19:35;93949.19;;;22.99;53.85
51829;BME280;37881;48.024;8.774;2023-09-19T12:22:03;93945.53;;;22.35;54.11
51829;BME280;37881;48.024;8.774;2023-09-19T12:24:33;93942.75;;;21.94;54.49
51829;BME280;37881;48.024;8.774;2023-09-19T12:27:03;93932.47;;;21.29;57.20
51829;BME280;37881;48.024;8.774;2023-09-19T12:32:10;93939.59;;;22.07;57.69
51829;BME280;37881;48.024;8.774;2023-09-19T12:34:37;93946.34;;;22.41;56.77
51829;BME280;37881;48.024;8.774;2023-09-19T12:37:13;93946.03;;;22.33;56.65
51829;BME280;37881;48.024;8.774;2023-09-19T12:39:51;93936.97;;;21.98;55.34
51829;BME280;37881;48.024;8.774;2023-09-19T12:42:26;93929.47;;;22.09;56.64
51829;BME280;37881;48.024;8.774;2023-09-19T12:44:58;93924.59;;;22.25;56.72
51829;BME280;37881;48.024;8.774;2023-09-19T12:47:28;93924.50;;;22.40;55.57
51829;BME280;37881;48.024;8.774;2023-09-19T12:50:12;93914.88;;;22.00;57.36
51829;BME280;37881;48.024;8.774;2023-09-19T12:52:52;93915.66;;;22.00;57.20
51829;BME280;37881;48.024;8.774;2023-09-19T12:55:29;93929.63;;;21.80;56.99
51829;BME280;37881;48.024;8.774;2023-09-19T13:00:39;93918.44;;;22.00;58.71
51829;BME280;37881;48.024;8.774;2023-09-19T13:05:56;93916.88;;;22.20;56.20
51829;BME280;37881;48.024;8.774;2023-09-19T13:08:26;93918.94;;;21.58;58.60
51829;BME280;37881;48.024;8.774;2023-09-19T13:11:14;93912.22;;;21.70;58.27
51829;BME280;37881;48.024;8.774;2023-09-19T13:16:16;93906.41;;;22.14;57.70
51829;BME280;37881;48.024;8.774;2023-09-19T13:21:40;93903.97;;;21.61;57.18
51829;BME280;37881;48.024;8.774;2023-09-19T13:24:20;93907.63;;;21.67;57.10
51829;BME280;37881;48.024;8.774;2023-09-19T13:26:48;93899.78;;;22.12;57.27
51829;BME280;37881;48.024;8.774;2023-09-19T13:29:15;93890.28;;;22.24;57.85
51829;BME280;37881;48.024;8.774;2023-09-19T13:31:48;93888.59;;;22.12;56.43
51829;BME280;37881;48.024;8.774;2023-09-19T13:34:16;93898.63;;;21.57;59.27
51829;BME280;37881;48.024;8.774;2023-09-19T13:36:44;93891.56;;;21.62;59.31
51829;BME280;37881;48.024;8.774;2023-09-19T13:39:11;93897.91;;;21.83;59.57
51829;BME280;37881;48.024;8.774;2023-09-19T13:41:44;93887.78;;;21.44;59.51
51829;BME280;37881;48.024;8.774;2023-09-19T13:44:11;93883.47;;;21.64;60.25
51829;BME280;37881;48.024;8.774;2023-09-19T13:46:38;93883.72;;;21.86;60.53
51829;BME280;37881;48.024;8.774;2023-09-19T13:49:05;93881.13;;;22.03;59.39
51829;BME280;37881;48.024;8.774;2023-09-19T13:51:32;93879.97;;;21.89;59.48
51829;BME280;37881;48.024;8.774;2023-09-19T13:53:59;93882.44;;;22.08;60.01
51829;BME280;37881;48.024;8.774;2023-09-19T13:56:28;93877.38;;;21.86;61.24
51829;BME280;37881;48.024;8.774;2023-09-19T13:58:55;93877.09;;;21.84;60.86
51829;BME280;37881;48.024;8.774;2023-09-19T14:01:22;93866.28;;;21.71;59.57
51829;BME280;37881;48.024;8.774;2023-09-19T14:03:49;93873.41;;;22.19;59.21
51829;BME280;37881;48.024;8.774;2023-09-19T14:06:17;93872.13;;;21.93;59.16
51829;BME280;37881;48.024;8.774;2023-09-19T14:08:44;93863.00;;;22.19;58.62
51829;BME280;37881;48.024;8.774;2023-09-19T14:11:14;93870.91;;;21.74;59.34
51829;BME280;37881;48.024;8.774;2023-09-19T14:13:43;93872.31;;;22.10;59.74
51829;BME280;37881;48.024;8.774;2023-09-19T14:16:14;93860.53;;;22.53;59.18
51829;BME280;37881;48.024;8.774;2023-09-19T14:18:40;93875.22;;;22.74;57.09